sensor_id;sensor_type;location;lat;lon;timestamp;P1;durP1;ratioP1;P2;durP2;ratioP2
46339;SDS011;47273;49.274;8.708;2022-08-01T03:37:34;12.85;;;11.75;;
46339;SDS011;47273;49.274;8.708;2022-08-01T03:40:11;12.52;;;11.43;;
46339;SDS011;47273;49.274;8.708;2022-08-01T03:42:47;16.65;;;11.13;;
46339;SDS011;47273;49.274;8.708;2022-08-01T03:45:23;11.65;;;9.95;;
46339;SDS011;47273;49.274;8.708;2022-08-01T03:47:59;10.63;;;9.63;;
46339;SDS011;47273;49.274;8.708;2022-08-01T03:50:29;11.40;;;10.07;;
46339;SDS011;47273;49.274;8.708;2022-08-01T03:52:59;10.88;;;9.98;;
46339;SDS011;47273;49.274;8.708;2022-08-01T03:55:26;13.73;;;10.90;;
46339;SDS011;47273;49.274;8.708;2022-08-01T03:57:53;11.73;;;10.65;;
46339;SDS011;47273;49.274;8.708;2022-08-01T04:00:20;11.50;;;10.38;;
46339;SDS011;47273;49.274;8.708;2022-08-01T04:02:49;11.57;;;10.57;;
46339;SDS011;47273;49.274;8.708;2022-08-01T04:05:15;12.23;;;11.02;;
46339;SDS011;47273;49.274;8.708;2022-08-01T04:07:45;12.32;;;11.27;;
46339;SDS011;47273;49.274;8.708;2022-08-01T04:10:12;12.95;;;11.75;;
46339;SDS011;47273;49.274;8.708;2022-08-01T04:12:41;14.02;;;12.93;;
46339;SDS011;47273;49.274;8.708;2022-08-01T04:15:07;12.90;;;11.80;;
46339;SDS011;47273;49.274;8.708;2022-08-01T04:17:33;13.05;;;11.77;;
46339;SDS011;47273;49.274;8.708;2022-08-01T04:19:59;13.15;;;11.93;;
46339;SDS011;47273;49.274;8.708;2022-08-01T04:22:25;13.10;;;11.98;;
46339;SDS011;47273;49.274;8.708;2022-08-01T04:24:54;12.95;;;11.85;;
46339;SDS011;47273;49.274;8.708;2022-08-01T04:27:25;13.20;;;12.02;;
46339;SDS011;47273;49.274;8.708;2022-08-01T04:30:01;13.73;;;12.00;;
46339;SDS011;47273;49.274;8.708;2022-08-01T04:32:31;13.00;;;11.80;;
46339;SDS011;47273;49.274;8.708;2022-08-01T04:34:59;13.15;;;12.05;;
46339;SDS011;47273;49.274;8.708;2022-08-01T04:37:31;12.82;;;11.68;;
46339;SDS011;47273;49.274;8.708;2022-08-01T04:40:01;14.15;;;12.95;;
46339;SDS011;47273;49.274;8.708;2022-08-01T04:42:30;13.35;;;12.15;;
46339;SDS011;47273;49.274;8.708;2022-08-01T04:45:00;15.20;;;12.73;;
46339;SDS011;47273;49.274;8.708;2022-08-01T04:47:26;13.45;;;12.25;;
46339;SDS011;47273;49.274;8.708;2022-08-01T04:49:52;12.63;;;11.63;;
46339;SDS011;47273;49.274;8.708;2022-08-01T04:52:18;12.80;;;11.60;;
46339;SDS011;47273;49.274;8.708;2022-08-01T04:54:44;12.73;;;11.35;;
46339;SDS011;47273;49.274;8.708;2022-08-01T04:57:11;12.52;;;11.48;;
46339;SDS011;47273;49.274;8.708;2022-08-01T04:59:38;12.60;;;11.30;;
46339;SDS011;47273;49.274;8.708;2022-08-01T05:02:23;12.30;;;11.25;;
46339;SDS011;47273;49.274;8.708;2022-08-01T05:04:49;13.15;;;11.85;;
46339;SDS011;47273;49.274;8.708;2022-08-01T05:07:14;12.93;;;11.73;;
46339;SDS011;47273;49.274;8.708;2022-08-01T05:09:40;12.48;;;11.25;;
46339;SDS011;47273;49.274;8.708;2022-08-01T05:12:09;12.43;;;11.32;;
46339;SDS011;47273;49.274;8.708;2022-08-01T05:14:44;13.48;;;12.27;;
46339;SDS011;47273;49.274;8.708;2022-08-01T05:17:11;12.73;;;11.50;;
46339;SDS011;47273;49.274;8.708;2022-08-01T05:19:37;12.48;;;11.40;;
46339;SDS011;47273;49.274;8.708;2022-08-01T05:22:08;13.13;;;12.02;;
46339;SDS011;47273;49.274;8.708;2022-08-01T05:24:35;13.15;;;11.85;;
46339;SDS011;47273;49.274;8.708;2022-08-01T05:27:07;12.30;;;11.30;;
46339;SDS011;47273;49.274;8.708;2022-08-01T05:29:34;13.15;;;11.77;;
46339;SDS011;47273;49.274;8.708;2022-08-01T05:32:09;14.25;;;11.95;;
46339;SDS011;47273;49.274;8.708;2022-08-01T05:34:35;12.73;;;9.35;;
46339;SDS011;47273;49.274;8.708;2022-08-01T05:37:01;15.93;;;12.20;;
46339;SDS011;47273;49.274;8.708;2022-08-01T05:39:27;13.52;;;12.18;;
46339;SDS011;47273;49.274;8.708;2022-08-01T05:41:55;18.60;;;12.73;;
46339;SDS011;47273;49.274;8.708;2022-08-01T05:44:21;13.50;;;12.20;;
46339;SDS011;47273;49.274;8.708;2022-08-01T05:46:50;13.00;;;12.00;;
46339;SDS011;47273;49.274;8.708;2022-08-01T05:49:19;13.55;;;12.20;;
46339;SDS011;47273;49.274;8.708;2022-08-01T05:51:50;13.85;;;12.65;;
46339;SDS011;47273;49.274;8.708;2022-08-01T05:54:26;14.35;;;13.05;;
46339;SDS011;47273;49.274;8.708;2022-08-01T05:56:51;13.93;;;12.73;;
46339;SDS011;47273;49.274;8.708;2022-08-01T05:59:25;13.65;;;12.45;;
46339;SDS011;47273;49.274;8.708;2022-08-01T06:01:51;14.00;;;12.70;;
46339;SDS011;47273;49.274;8.708;2022-08-01T06:04:17;15.45;;;13.30;;
46339;SDS011;47273;49.274;8.708;2022-08-01T06:06:45;13.50;;;12.40;;
46339;SDS011;47273;49.274;8.708;2022-08-01T06:09:32;13.25;;;12.10;;
46339;SDS011;47273;49.274;8.708;2022-08-01T06:12:00;13.68;;;12.50;;
46339;SDS011;47273;49.274;8.708;2022-08-01T06:14:25;12.93;;;11.93;;
46339;SDS011;47273;49.274;8.708;2022-08-01T06:16:51;14.20;;;12.50;;
46339;SDS011;47273;49.274;8.708;2022-08-01T06:19:20;15.73;;;12.77;;
46339;SDS011;47273;49.274;8.708;2022-08-01T06:21:49;12.95;;;11.70;;
46339;SDS011;47273;49.274;8.708;2022-08-01T06:24:14;12.98;;;11.90;;
46339;SDS011;47273;49.274;8.708;2022-08-01T06:26:40;13.65;;;12.57;;
46339;SDS011;47273;49.274;8.708;2022-08-01T06:29:17;14.35;;;12.75;;
46339;SDS011;47273;49.274;8.708;2022-08-01T06:31:45;13.35;;;12.27;;
46339;SDS011;47273;49.274;8.708;2022-08-01T06:34:19;12.95;;;11.95;;
46339;SDS011;47273;49.274;8.708;2022-08-01T06:36:51;13.70;;;12.40;;
46339;SDS011;47273;49.274;8.708;2022-08-01T06:39:16;13.35;;;12.15;;
46339;SDS011;47273;49.274;8.708;2022-08-01T06:41:44;15.45;;;12.18;;
46339;SDS011;47273;49.274;8.708;2022-08-01T06:44:14;12.38;;;11.48;;
46339;SDS011;47273;49.274;8.708;2022-08-01T06:46:40;11.60;;;10.70;;
46339;SDS011;47273;49.274;8.708;2022-08-01T06:49:09;12.15;;;11.00;;
46339;SDS011;47273;49.274;8.708;2022-08-01T06:51:35;11.77;;;10.88;;
46339;SDS011;47273;49.274;8.708;2022-08-01T06:54:01;12.95;;;11.55;;
46339;SDS011;47273;49.274;8.708;2022-08-01T06:56:26;12.02;;;11.15;;
46339;SDS011;47273;49.274;8.708;2022-08-01T06:58:52;12.23;;;11.07;;
46339;SDS011;47273;49.274;8.708;2022-08-01T07:01:20;11.68;;;10.50;;
46339;SDS011;47273;49.274;8.708;2022-08-01T07:03:48;11.10;;;10.30;;
46339;SDS011;47273;49.274;8.708;2022-08-01T07:06:14;11.48;;;10.68;;
46339;SDS011;47273;49.274;8.708;2022-08-01T07:08:40;11.27;;;10.38;;
46339;SDS011;47273;49.274;8.708;2022-08-01T07:11:08;11.43;;;10.50;;
46339;SDS011;47273;49.274;8.708;2022-08-01T07:13:33;11.82;;;10.60;;
46339;SDS011;47273;49.274;8.708;2022-08-01T07:15:59;12.10;;;11.20;;
46339;SDS011;47273;49.274;8.708;2022-08-01T07:18:24;13.27;;;12.13;;
46339;SDS011;47273;49.274;8.708;2022-08-01T07:20:50;13.55;;;12.20;;
46339;SDS011;47273;49.274;8.708;2022-08-01T07:23:18;12.52;;;11.52;;
46339;SDS011;47273;49.274;8.708;2022-08-01T07:25:44;12.45;;;11.48;;
46339;SDS011;47273;49.274;8.708;2022-08-01T07:28:17;12.07;;;11.27;;
46339;SDS011;47273;49.274;8.708;2022-08-01T07:30:43;12.82;;;11.80;;
46339;SDS011;47273;49.274;8.708;2022-08-01T07:33:09;13.35;;;12.02;;
46339;SDS011;47273;49.274;8.708;2022-08-01T07:35:35;12.77;;;11.88;;
46339;SDS011;47273;49.274;8.708;2022-08-01T07:38:03;12.73;;;11.60;;
46339;SDS011;47273;49.274;8.708;2022-08-01T07:40:31;12.30;;;11.40;;
46339;SDS011;47273;49.274;8.708;2022-08-01T07:42:57;12.48;;;11.27;;
46339;SDS011;47273;49.274;8.708;2022-08-01T07:45:23;12.48;;;11.50;;
46339;SDS011;47273;49.274;8.708;2022-08-01T07:47:52;12.05;;;11.25;;
46339;SDS011;47273;49.274;8.708;2022-08-01T07:50:20;12.85;;;11.82;;
46339;SDS011;47273;49.274;8.708;2022-08-01T07:52:46;15.95;;;11.27;;
46339;SDS011;47273;49.274;8.708;2022-08-01T07:55:12;12.38;;;11.27;;
46339;SDS011;47273;49.274;8.708;2022-08-01T07:57:39;11.52;;;10.63;;
46339;SDS011;47273;49.274;8.708;2022-08-01T08:00:07;11.30;;;10.50;;
46339;SDS011;47273;49.274;8.708;2022-08-01T08:02:34;10.88;;;10.18;;
46339;SDS011;47273;49.274;8.708;2022-08-01T08:05:10;11.43;;;10.43;;
46339;SDS011;47273;49.274;8.708;2022-08-01T08:07:38;13.23;;;11.18;;
46339;SDS011;47273;49.274;8.708;2022-08-01T08:10:09;11.60;;;10.80;;
46339;SDS011;47273;49.274;8.708;2022-08-01T08:12:36;11.80;;;11.00;;
46339;SDS011;47273;49.274;8.708;2022-08-01T08:15:02;12.73;;;11.82;;
46339;SDS011;47273;49.274;8.708;2022-08-01T08:17:30;12.00;;;10.82;;
46339;SDS011;47273;49.274;8.708;2022-08-01T08:19:57;9.98;;;9.07;;
46339;SDS011;47273;49.274;8.708;2022-08-01T08:22:22;10.60;;;9.82;;
46339;SDS011;47273;49.274;8.708;2022-08-01T08:24:50;11.98;;;11.07;;
46339;SDS011;47273;49.274;8.708;2022-08-01T08:27:16;11.88;;;10.95;;
46339;SDS011;47273;49.274;8.708;2022-08-01T08:29:42;11.60;;;10.75;;
46339;SDS011;47273;49.274;8.708;2022-08-01T08:32:08;12.63;;;11.80;;
46339;SDS011;47273;49.274;8.708;2022-08-01T08:34:34;12.15;;;11.35;;
46339;SDS011;47273;49.274;8.708;2022-08-01T08:37:06;11.88;;;11.15;;
46339;SDS011;47273;49.274;8.708;2022-08-01T08:39:32;12.00;;;11.20;;
46339;SDS011;47273;49.274;8.708;2022-08-01T08:42:04;12.70;;;11.80;;
46339;SDS011;47273;49.274;8.708;2022-08-01T08:44:31;13.88;;;12.00;;
46339;SDS011;47273;49.274;8.708;2022-08-01T08:46:57;12.43;;;11.52;;
46339;SDS011;47273;49.274;8.708;2022-08-01T08:49:30;12.30;;;11.48;;
46339;SDS011;47273;49.274;8.708;2022-08-01T08:51:58;12.40;;;11.40;;
46339;SDS011;47273;49.274;8.708;2022-08-01T08:54:25;12.00;;;11.20;;
46339;SDS011;47273;49.274;8.708;2022-08-01T08:56:54;12.23;;;11.43;;
46339;SDS011;47273;49.274;8.708;2022-08-01T08:59:21;12.57;;;11.68;;
46339;SDS011;47273;49.274;8.708;2022-08-01T09:01:58;11.80;;;11.02;;
46339;SDS011;47273;49.274;8.708;2022-08-01T09:04:24;11.98;;;11.02;;
46339;SDS011;47273;49.274;8.708;2022-08-01T09:06:51;11.77;;;10.98;;
46339;SDS011;47273;49.274;8.708;2022-08-01T09:09:17;12.05;;;11.00;;
46339;SDS011;47273;49.274;8.708;2022-08-01T09:11:43;12.68;;;11.77;;
46339;SDS011;47273;49.274;8.708;2022-08-01T09:14:13;12.48;;;11.35;;
46339;SDS011;47273;49.274;8.708;2022-08-01T09:16:59;12.00;;;11.20;;
46339;SDS011;47273;49.274;8.708;2022-08-01T09:25:54;11.75;;;11.00;;
46339;SDS011;47273;49.274;8.708;2022-08-01T09:30:53;11.82;;;11.02;;
46339;SDS011;47273;49.274;8.708;2022-08-01T09:33:20;11.90;;;11.10;;
46339;SDS011;47273;49.274;8.708;2022-08-01T09:39:58;12.00;;;11.20;;
46339;SDS011;47273;49.274;8.708;2022-08-01T09:43:33;11.60;;;10.60;;
46339;SDS011;47273;49.274;8.708;2022-08-01T09:46:08;12.05;;;11.25;;
46339;SDS011;47273;49.274;8.708;2022-08-01T09:48:37;11.77;;;10.97;;
46339;SDS011;47273;49.274;8.708;2022-08-01T09:51:34;11.43;;;10.73;;
46339;SDS011;47273;49.274;8.708;2022-08-01T09:54:30;11.90;;;11.10;;
46339;SDS011;47273;49.274;8.708;2022-08-01T09:57:24;11.90;;;11.10;;
46339;SDS011;47273;49.274;8.708;2022-08-01T10:00:18;11.90;;;11.00;;
46339;SDS011;47273;49.274;8.708;2022-08-01T10:02:44;12.50;;;11.60;;
46339;SDS011;47273;49.274;8.708;2022-08-01T10:05:10;12.68;;;11.48;;
46339;SDS011;47273;49.274;8.708;2022-08-01T10:08:07;13.52;;;12.20;;
46339;SDS011;47273;49.274;8.708;2022-08-01T10:11:09;11.83;;;11.00;;
46339;SDS011;47273;49.274;8.708;2022-08-01T10:13:40;12.10;;;11.18;;
46339;SDS011;47273;49.274;8.708;2022-08-01T10:16:08;11.68;;;10.88;;
46339;SDS011;47273;49.274;8.708;2022-08-01T10:18:45;12.00;;;11.20;;
46339;SDS011;47273;49.274;8.708;2022-08-01T10:21:20;12.75;;;11.70;;
46339;SDS011;47273;49.274;8.708;2022-08-01T10:24:12;12.25;;;11.35;;
46339;SDS011;47273;49.274;8.708;2022-08-01T10:26:49;12.45;;;11.65;;
46339;SDS011;47273;49.274;8.708;2022-08-01T10:29:34;13.10;;;12.00;;
46339;SDS011;47273;49.274;8.708;2022-08-01T10:35:07;11.98;;;11.18;;
46339;SDS011;47273;49.274;8.708;2022-08-01T10:37:49;12.25;;;11.32;;
46339;SDS011;47273;49.274;8.708;2022-08-01T10:40:21;12.50;;;11.70;;
46339;SDS011;47273;49.274;8.708;2022-08-01T10:42:50;12.60;;;11.80;;
46339;SDS011;47273;49.274;8.708;2022-08-01T10:45:20;12.07;;;11.13;;
46339;SDS011;47273;49.274;8.708;2022-08-01T10:47:55;12.35;;;11.35;;
46339;SDS011;47273;49.274;8.708;2022-08-01T10:50:32;12.57;;;11.50;;
46339;SDS011;47273;49.274;8.708;2022-08-01T10:53:25;11.90;;;11.00;;
46339;SDS011;47273;49.274;8.708;2022-08-01T10:56:00;12.07;;;11.00;;
46339;SDS011;47273;49.274;8.708;2022-08-01T10:58:30;10.77;;;10.07;;
46339;SDS011;47273;49.274;8.708;2022-08-01T11:03:42;11.85;;;10.85;;
46339;SDS011;47273;49.274;8.708;2022-08-01T11:06:23;11.68;;;10.88;;
46339;SDS011;47273;49.274;8.708;2022-08-01T11:08:55;11.57;;;10.77;;
46339;SDS011;47273;49.274;8.708;2022-08-01T11:11:26;12.10;;;11.20;;
46339;SDS011;47273;49.274;8.708;2022-08-01T11:23:54;13.98;;;12.73;;
46339;SDS011;47273;49.274;8.708;2022-08-01T11:32:56;11.90;;;11.00;;
46339;SDS011;47273;49.274;8.708;2022-08-01T11:35:32;12.07;;;11.27;;
46339;SDS011;47273;49.274;8.708;2022-08-01T11:44:01;11.77;;;10.75;;
46339;SDS011;47273;49.274;8.708;2022-08-01T11:52:06;13.70;;;12.23;;
46339;SDS011;47273;49.274;8.708;2022-08-01T11:54:53;12.90;;;12.00;;
46339;SDS011;47273;49.274;8.708;2022-08-01T11:57:24;13.23;;;12.32;;
46339;SDS011;47273;49.274;8.708;2022-08-01T11:59:57;13.23;;;12.30;;
46339;SDS011;47273;49.274;8.708;2022-08-01T12:02:38;13.23;;;12.32;;
46339;SDS011;47273;49.274;8.708;2022-08-01T12:05:05;12.98;;;11.98;;
46339;SDS011;47273;49.274;8.708;2022-08-01T12:07:52;12.75;;;11.95;;
46339;SDS011;47273;49.274;8.708;2022-08-01T12:10:35;13.40;;;12.30;;
46339;SDS011;47273;49.274;8.708;2022-08-01T12:13:15;13.15;;;12.15;;
46339;SDS011;47273;49.274;8.708;2022-08-01T12:15:45;12.70;;;11.82;;
46339;SDS011;47273;49.274;8.708;2022-08-01T12:18:11;12.70;;;11.68;;
46339;SDS011;47273;49.274;8.708;2022-08-01T12:20:39;11.85;;;10.95;;
46339;SDS011;47273;49.274;8.708;2022-08-01T12:23:07;13.15;;;12.30;;
46339;SDS011;47273;49.274;8.708;2022-08-01T12:25:34;13.20;;;12.30;;
46339;SDS011;47273;49.274;8.708;2022-08-01T12:28:02;13.25;;;12.10;;
46339;SDS011;47273;49.274;8.708;2022-08-01T12:30:42;12.70;;;11.70;;
46339;SDS011;47273;49.274;8.708;2022-08-01T12:33:33;12.48;;;11.65;;
46339;SDS011;47273;49.274;8.708;2022-08-01T12:35:59;12.82;;;12.02;;
46339;SDS011;47273;49.274;8.708;2022-08-01T12:38:26;12.40;;;11.60;;
46339;SDS011;47273;49.274;8.708;2022-08-01T12:43:50;12.40;;;11.48;;
46339;SDS011;47273;49.274;8.708;2022-08-01T12:46:28;12.27;;;11.48;;
46339;SDS011;47273;49.274;8.708;2022-08-01T12:49:14;12.82;;;11.82;;
46339;SDS011;47273;49.274;8.708;2022-08-01T12:52:07;12.85;;;12.05;;
46339;SDS011;47273;49.274;8.708;2022-08-01T13:01:02;12.75;;;11.95;;
46339;SDS011;47273;49.274;8.708;2022-08-01T13:03:37;12.48;;;11.65;;
46339;SDS011;47273;49.274;8.708;2022-08-01T13:06:12;12.85;;;11.95;;
46339;SDS011;47273;49.274;8.708;2022-08-01T13:08:52;13.80;;;12.43;;
46339;SDS011;47273;49.274;8.708;2022-08-01T13:11:25;13.25;;;12.25;;
46339;SDS011;47273;49.274;8.708;2022-08-01T13:14:30;13.17;;;12.17;;
46339;SDS011;47273;49.274;8.708;2022-08-01T13:19:56;13.60;;;12.63;;
46339;SDS011;47273;49.274;8.708;2022-08-01T13:22:46;13.00;;;12.10;;
46339;SDS011;47273;49.274;8.708;2022-08-01T13:25:13;13.25;;;12.18;;
46339;SDS011;47273;49.274;8.708;2022-08-01T13:27:46;12.85;;;11.95;;
46339;SDS011;47273;49.274;8.708;2022-08-01T13:30:23;12.30;;;11.48;;
46339;SDS011;47273;49.274;8.708;2022-08-01T13:32:59;12.43;;;11.52;;
46339;SDS011;47273;49.274;8.708;2022-08-01T13:35:49;12.23;;;11.25;;
46339;SDS011;47273;49.274;8.708;2022-08-01T13:38:26;13.23;;;12.32;;
46339;SDS011;47273;49.274;8.708;2022-08-01T13:41:21;13.20;;;12.10;;
46339;SDS011;47273;49.274;8.708;2022-08-01T13:44:00;12.38;;;11.48;;
46339;SDS011;47273;49.274;8.708;2022-08-01T13:46:39;12.18;;;11.30;;
46339;SDS011;47273;49.274;8.708;2022-08-01T13:49:10;12.82;;;11.93;;
46339;SDS011;47273;49.274;8.708;2022-08-01T13:52:04;13.05;;;12.13;;
46339;SDS011;47273;49.274;8.708;2022-08-01T13:54:47;11.90;;;10.90;;
46339;SDS011;47273;49.274;8.708;2022-08-01T13:57:35;11.95;;;11.05;;
46339;SDS011;47273;49.274;8.708;2022-08-01T14:00:04;11.18;;;10.48;;
46339;SDS011;47273;49.274;8.708;2022-08-01T14:02:54;11.32;;;10.57;;
46339;SDS011;47273;49.274;8.708;2022-08-01T14:05:41;11.50;;;10.70;;
46339;SDS011;47273;49.274;8.708;2022-08-01T14:08:15;11.95;;;11.15;;
46339;SDS011;47273;49.274;8.708;2022-08-01T14:10:52;11.93;;;10.60;;
46339;SDS011;47273;49.274;8.708;2022-08-01T14:13:24;11.38;;;10.48;;
46339;SDS011;47273;49.274;8.708;2022-08-01T14:15:53;11.35;;;10.55;;
46339;SDS011;47273;49.274;8.708;2022-08-01T14:18:19;11.32;;;10.45;;
46339;SDS011;47273;49.274;8.708;2022-08-01T14:20:45;11.55;;;10.85;;
46339;SDS011;47273;49.274;8.708;2022-08-01T14:23:14;11.30;;;10.40;;
46339;SDS011;47273;49.274;8.708;2022-08-01T14:25:56;11.07;;;10.27;;
46339;SDS011;47273;49.274;8.708;2022-08-01T14:28:22;11.63;;;10.82;;
46339;SDS011;47273;49.274;8.708;2022-08-01T14:33:37;10.85;;;10.05;;
46339;SDS011;47273;49.274;8.708;2022-08-01T14:36:23;10.60;;;9.80;;
46339;SDS011;47273;49.274;8.708;2022-08-01T14:38:52;9.63;;;8.93;;
46339;SDS011;47273;49.274;8.708;2022-08-01T14:41:44;10.52;;;9.73;;
46339;SDS011;47273;49.274;8.708;2022-08-01T14:47:08;10.00;;;9.30;;
46339;SDS011;47273;49.274;8.708;2022-08-01T14:49:39;10.32;;;9.43;;
46339;SDS011;47273;49.274;8.708;2022-08-01T14:52:10;9.82;;;9.13;;
46339;SDS011;47273;49.274;8.708;2022-08-01T14:54:44;9.57;;;8.98;;
46339;SDS011;47273;49.274;8.708;2022-08-01T14:57:12;10.05;;;9.35;;
46339;SDS011;47273;49.274;8.708;2022-08-01T14:59:38;10.65;;;9.65;;
46339;SDS011;47273;49.274;8.708;2022-08-01T15:02:04;10.13;;;9.40;;
46339;SDS011;47273;49.274;8.708;2022-08-01T15:04:29;10.93;;;9.90;;
46339;SDS011;47273;49.274;8.708;2022-08-01T15:06:55;10.90;;;10.20;;
46339;SDS011;47273;49.274;8.708;2022-08-01T15:09:24;11.10;;;10.30;;
46339;SDS011;47273;49.274;8.708;2022-08-01T15:11:52;11.02;;;10.13;;
46339;SDS011;47273;49.274;8.708;2022-08-01T15:14:18;10.55;;;9.85;;
46339;SDS011;47273;49.274;8.708;2022-08-01T15:20:07;10.50;;;9.65;;
46339;SDS011;47273;49.274;8.708;2022-08-01T15:22:38;10.70;;;10.00;;
46339;SDS011;47273;49.274;8.708;2022-08-01T15:25:07;11.10;;;10.27;;
46339;SDS011;47273;49.274;8.708;2022-08-01T15:27:38;10.55;;;9.68;;
46339;SDS011;47273;49.274;8.708;2022-08-01T15:30:07;10.65;;;9.95;;
46339;SDS011;47273;49.274;8.708;2022-08-01T15:32:39;10.40;;;9.60;;
46339;SDS011;47273;49.274;8.708;2022-08-01T15:35:08;10.52;;;9.52;;
46339;SDS011;47273;49.274;8.708;2022-08-01T15:37:37;10.10;;;9.27;;
46339;SDS011;47273;49.274;8.708;2022-08-01T15:40:03;9.90;;;9.20;;
46339;SDS011;47273;49.274;8.708;2022-08-01T15:42:32;9.93;;;9.20;;
46339;SDS011;47273;49.274;8.708;2022-08-01T15:45:07;10.40;;;9.57;;
46339;SDS011;47273;49.274;8.708;2022-08-01T15:47:42;9.90;;;9.13;;
46339;SDS011;47273;49.274;8.708;2022-08-01T15:50:09;9.40;;;8.70;;
46339;SDS011;47273;49.274;8.708;2022-08-01T15:52:35;10.10;;;9.10;;
46339;SDS011;47273;49.274;8.708;2022-08-01T15:55:23;10.20;;;9.40;;
46339;SDS011;47273;49.274;8.708;2022-08-01T16:01:08;10.02;;;9.32;;
46339;SDS011;47273;49.274;8.708;2022-08-01T16:07:25;10.10;;;9.40;;
46339;SDS011;47273;49.274;8.708;2022-08-01T16:10:12;12.07;;;9.80;;
46339;SDS011;47273;49.274;8.708;2022-08-01T16:13:26;10.68;;;9.77;;
46339;SDS011;47273;49.274;8.708;2022-08-01T16:19:30;10.13;;;9.38;;
46339;SDS011;47273;49.274;8.708;2022-08-01T16:21:56;10.07;;;9.18;;
46339;SDS011;47273;49.274;8.708;2022-08-01T16:24:24;9.80;;;9.10;;
46339;SDS011;47273;49.274;8.708;2022-08-01T16:26:53;9.77;;;9.07;;
46339;SDS011;47273;49.274;8.708;2022-08-01T16:29:23;10.00;;;9.20;;
46339;SDS011;47273;49.274;8.708;2022-08-01T16:31:56;10.20;;;9.30;;
46339;SDS011;47273;49.274;8.708;2022-08-01T16:34:35;10.10;;;9.40;;
46339;SDS011;47273;49.274;8.708;2022-08-01T16:37:01;9.73;;;8.65;;
46339;SDS011;47273;49.274;8.708;2022-08-01T16:39:27;9.80;;;9.10;;
46339;SDS011;47273;49.274;8.708;2022-08-01T16:41:54;9.80;;;9.00;;
46339;SDS011;47273;49.274;8.708;2022-08-01T16:44:22;9.98;;;9.18;;
46339;SDS011;47273;49.274;8.708;2022-08-01T16:46:54;9.70;;;9.00;;
46339;SDS011;47273;49.274;8.708;2022-08-01T16:49:19;10.00;;;9.30;;
46339;SDS011;47273;49.274;8.708;2022-08-01T16:51:55;9.43;;;8.65;;
46339;SDS011;47273;49.274;8.708;2022-08-01T16:54:21;9.35;;;8.70;;
46339;SDS011;47273;49.274;8.708;2022-08-01T16:56:56;9.60;;;8.82;;
46339;SDS011;47273;49.274;8.708;2022-08-01T16:59:34;10.18;;;9.45;;
46339;SDS011;47273;49.274;8.708;2022-08-01T17:02:00;9.98;;;9.27;;
46339;SDS011;47273;49.274;8.708;2022-08-01T17:04:25;9.75;;;9.00;;
46339;SDS011;47273;49.274;8.708;2022-08-01T17:06:51;9.60;;;8.80;;
46339;SDS011;47273;49.274;8.708;2022-08-01T17:09:17;9.63;;;8.73;;
46339;SDS011;47273;49.274;8.708;2022-08-01T17:11:46;10.90;;;9.38;;
46339;SDS011;47273;49.274;8.708;2022-08-01T17:14:14;9.90;;;9.20;;
46339;SDS011;47273;49.274;8.708;2022-08-01T17:16:41;10.10;;;9.40;;
46339;SDS011;47273;49.274;8.708;2022-08-01T17:19:10;9.43;;;8.52;;
46339;SDS011;47273;49.274;8.708;2022-08-01T17:21:38;9.55;;;8.68;;
46339;SDS011;47273;49.274;8.708;2022-08-01T17:24:07;10.05;;;9.32;;
46339;SDS011;47273;49.274;8.708;2022-08-01T17:26:36;12.70;;;9.70;;
46339;SDS011;47273;49.274;8.708;2022-08-01T17:29:08;10.43;;;9.40;;
46339;SDS011;47273;49.274;8.708;2022-08-01T17:31:42;10.20;;;9.50;;
46339;SDS011;47273;49.274;8.708;2022-08-01T17:34:29;9.63;;;8.93;;
46339;SDS011;47273;49.274;8.708;2022-08-01T17:36:54;10.20;;;9.20;;
46339;SDS011;47273;49.274;8.708;2022-08-01T17:39:20;9.48;;;8.68;;
46339;SDS011;47273;49.274;8.708;2022-08-01T17:41:52;9.77;;;9.07;;
46339;SDS011;47273;49.274;8.708;2022-08-01T17:44:23;9.70;;;8.95;;
46339;SDS011;47273;49.274;8.708;2022-08-01T17:46:51;10.15;;;9.35;;
46339;SDS011;47273;49.274;8.708;2022-08-01T17:49:22;10.30;;;9.27;;
46339;SDS011;47273;49.274;8.708;2022-08-01T17:51:49;9.85;;;9.15;;
46339;SDS011;47273;49.274;8.708;2022-08-01T17:54:17;9.70;;;9.00;;
46339;SDS011;47273;49.274;8.708;2022-08-01T17:56:45;9.23;;;8.52;;
46339;SDS011;47273;49.274;8.708;2022-08-01T17:59:11;9.27;;;8.52;;
46339;SDS011;47273;49.274;8.708;2022-08-01T18:01:39;9.07;;;8.48;;
46339;SDS011;47273;49.274;8.708;2022-08-01T18:04:04;9.68;;;8.98;;
46339;SDS011;47273;49.274;8.708;2022-08-01T18:06:33;9.82;;;9.13;;
46339;SDS011;47273;49.274;8.708;2022-08-01T18:09:00;9.55;;;8.75;;
46339;SDS011;47273;49.274;8.708;2022-08-01T18:11:26;9.82;;;9.13;;
46339;SDS011;47273;49.274;8.708;2022-08-01T18:13:52;9.65;;;8.95;;
46339;SDS011;47273;49.274;8.708;2022-08-01T18:16:19;9.65;;;8.95;;
46339;SDS011;47273;49.274;8.708;2022-08-01T18:18:45;9.98;;;8.88;;
46339;SDS011;47273;49.274;8.708;2022-08-01T18:21:11;8.70;;;8.10;;
46339;SDS011;47273;49.274;8.708;2022-08-01T18:23:37;9.68;;;8.82;;
46339;SDS011;47273;49.274;8.708;2022-08-01T18:26:05;9.45;;;8.75;;
46339;SDS011;47273;49.274;8.708;2022-08-01T18:28:35;9.30;;;8.60;;
46339;SDS011;47273;49.274;8.708;2022-08-01T18:31:06;9.13;;;8.48;;
46339;SDS011;47273;49.274;8.708;2022-08-01T18:33:33;9.38;;;8.68;;
46339;SDS011;47273;49.274;8.708;2022-08-01T18:35:59;9.65;;;8.85;;
46339;SDS011;47273;49.274;8.708;2022-08-01T18:38:26;9.70;;;8.80;;
46339;SDS011;47273;49.274;8.708;2022-08-01T18:40:54;9.70;;;8.80;;
46339;SDS011;47273;49.274;8.708;2022-08-01T18:43:23;9.52;;;8.82;;
46339;SDS011;47273;49.274;8.708;2022-08-01T18:45:52;9.68;;;8.55;;
46339;SDS011;47273;49.274;8.708;2022-08-01T18:48:22;9.95;;;9.00;;
46339;SDS011;47273;49.274;8.708;2022-08-01T18:50:53;10.25;;;9.35;;
46339;SDS011;47273;49.274;8.708;2022-08-01T18:53:18;9.18;;;8.48;;
46339;SDS011;47273;49.274;8.708;2022-08-01T18:55:45;9.30;;;8.60;;
46339;SDS011;47273;49.274;8.708;2022-08-01T18:58:15;9.52;;;8.73;;
46339;SDS011;47273;49.274;8.708;2022-08-01T19:00:41;9.20;;;8.50;;
46339;SDS011;47273;49.274;8.708;2022-08-01T19:03:07;9.60;;;8.80;;
46339;SDS011;47273;49.274;8.708;2022-08-01T19:09:54;10.30;;;9.27;;
46339;SDS011;47273;49.274;8.708;2022-08-01T19:12:26;9.57;;;8.88;;
46339;SDS011;47273;49.274;8.708;2022-08-01T19:14:53;10.32;;;9.52;;
46339;SDS011;47273;49.274;8.708;2022-08-01T19:17:22;10.68;;;9.88;;
46339;SDS011;47273;49.274;8.708;2022-08-01T19:19:51;11.43;;;10.45;;
46339;SDS011;47273;49.274;8.708;2022-08-01T19:22:19;11.75;;;10.80;;
46339;SDS011;47273;49.274;8.708;2022-08-01T19:24:45;11.82;;;11.02;;
46339;SDS011;47273;49.274;8.708;2022-08-01T19:27:16;12.07;;;10.98;;
46339;SDS011;47273;49.274;8.708;2022-08-01T19:29:54;11.02;;;10.10;;
46339;SDS011;47273;49.274;8.708;2022-08-01T19:32:39;11.40;;;10.60;;
46339;SDS011;47273;49.274;8.708;2022-08-01T19:38:10;10.90;;;10.10;;
46339;SDS011;47273;49.274;8.708;2022-08-01T19:40:39;12.77;;;11.50;;
46339;SDS011;47273;49.274;8.708;2022-08-01T19:43:26;13.63;;;11.15;;
46339;SDS011;47273;49.274;8.708;2022-08-01T19:45:57;11.52;;;10.52;;
46339;SDS011;47273;49.274;8.708;2022-08-01T19:48:37;11.45;;;10.70;;
46339;SDS011;47273;49.274;8.708;2022-08-01T19:51:04;11.75;;;10.95;;
46339;SDS011;47273;49.274;8.708;2022-08-01T19:53:36;11.52;;;10.70;;
46339;SDS011;47273;49.274;8.708;2022-08-01T19:56:03;11.13;;;10.40;;